createdAt,value
2023-06-04T20:30:24.481Z,20.33
2023-06-04T20:32:50.870Z,20.29
2023-06-04T20:35:17.272Z,20.32
2023-06-04T20:37:43.708Z,20.21
2023-06-04T20:40:10.049Z,20.35
2023-06-04T20:42:36.417Z,20.31
2023-06-04T20:45:02.774Z,20.29
2023-06-04T20:47:29.157Z,20.39
2023-06-04T20:49:55.538Z,20.25
2023-06-04T20:52:21.893Z,20.28
2023-06-04T20:54:48.261Z,20.13
2023-06-04T20:57:14.630Z,20.11
2023-06-04T20:59:40.988Z,20.11
2023-06-04T21:02:07.373Z,20.11
2023-06-04T21:04:33.783Z,20.08
2023-06-04T21:07:00.139Z,20.08
2023-06-04T21:09:26.500Z,20.15
2023-06-04T21:11:52.871Z,20.11
2023-06-04T21:14:19.210Z,20.00
2023-06-04T21:16:45.596Z,19.96
2023-06-04T21:19:11.997Z,19.97
2023-06-04T21:21:38.331Z,20.02
2023-06-04T21:24:04.780Z,19.98
2023-06-04T21:26:31.245Z,19.94
2023-06-04T21:28:57.586Z,19.86
2023-06-04T21:31:23.963Z,19.76
2023-06-04T21:33:50.345Z,19.76
2023-06-04T21:36:16.687Z,19.87
2023-06-04T21:38:43.027Z,19.78
2023-06-04T21:41:09.614Z,19.85
2023-06-04T21:43:35.987Z,19.71
2023-06-04T21:46:02.701Z,19.65
2023-06-04T21:48:29.119Z,19.76
2023-06-04T21:50:55.467Z,19.67
2023-06-04T21:53:21.812Z,19.55
2023-06-04T21:55:48.168Z,19.93
2023-06-04T21:58:14.504Z,19.95
2023-06-04T22:00:40.851Z,19.72
2023-06-04T22:03:07.386Z,19.81
2023-06-04T22:05:33.782Z,19.87
2023-06-04T22:08:00.119Z,19.66
2023-06-04T22:10:26.511Z,19.61
2023-06-04T22:12:52.859Z,19.83
2023-06-04T22:15:19.220Z,19.90
2023-06-04T22:17:45.659Z,19.33
2023-06-04T22:20:12.024Z,19.16
2023-06-04T22:22:38.366Z,18.96
2023-06-04T22:25:04.751Z,18.97
2023-06-04T22:27:31.099Z,19.27
2023-06-04T22:29:57.459Z,19.17
2023-06-04T22:32:23.836Z,19.12
2023-06-04T22:34:50.198Z,19.06
2023-06-04T22:37:16.543Z,18.94
2023-06-04T22:39:42.930Z,19.04
2023-06-04T22:42:09.281Z,18.92
2023-06-04T22:44:35.638Z,19.06
2023-06-04T22:47:02.101Z,19.14
2023-06-04T22:49:28.508Z,19.08
2023-06-04T22:51:54.951Z,19.24
2023-06-04T22:54:21.361Z,19.15
2023-06-04T22:56:47.702Z,18.84
2023-06-04T22:59:14.042Z,19.12
2023-06-04T23:01:40.405Z,18.86
2023-06-04T23:04:06.920Z,18.90
2023-06-04T23:06:33.370Z,18.74
2023-06-04T23:08:59.748Z,18.54
2023-06-04T23:11:26.085Z,18.58
2023-06-04T23:13:52.434Z,18.81
2023-06-04T23:16:18.819Z,18.76
2023-06-04T23:18:45.205Z,19.00
2023-06-04T23:21:11.566Z,18.94
2023-06-04T23:23:37.943Z,18.83
2023-06-04T23:26:04.326Z,18.61
2023-06-04T23:28:30.690Z,18.74
2023-06-04T23:30:57.051Z,18.73
2023-06-04T23:33:23.419Z,18.80
2023-06-04T23:35:49.766Z,18.79
2023-06-04T23:38:16.156Z,18.41
2023-06-04T23:40:42.511Z,18.25
2023-06-04T23:43:08.874Z,18.43
2023-06-04T23:45:35.249Z,18.74
2023-06-04T23:48:01.678Z,18.69
2023-06-04T23:50:28.052Z,18.49
2023-06-04T23:52:54.468Z,18.52
2023-06-04T23:55:20.815Z,18.34
2023-06-04T23:57:47.169Z,18.22
